Los Indios, Texas
Current Conditions -  °F | °C
As of 2:52 AM on Thursday 23 Oct 2014 (Local Time) from KHRL Reporting Station
Overcast Overcast  
Wind Chill: 68°   Ceiling: 9000
Heat Index: 68°   Visibility: 9mi
Dew Point: 66°   Wind: 5mph
Humidity: 93%   Direction: 330°NNW
Pressure: 30.01"   Gusts: NA
Location:  26.05°N, 97.74°W
Report Text: KHRL 230752Z 33004KT 9SM OVC090 20/19 A3001 RMK AO2 SLP162 T02000189
Loading
Personal Weather Stations






























Interactive Weather Map
Tropical Storm Tracking
New forecast layout! Learn more

10-Day Weather Forecast

Advertisements
Track Severe Weather on mobile